sensor_id;sensor_type;location;lat;lon;timestamp;pressure;altitude;pressure_sealevel;temperature;humidity
25430;BME280;13360;48.152;-1.788;2023-01-28T00:00:07;102863.78;;;7.67;100.00
25430;BME280;13360;48.152;-1.788;2023-01-28T00:02:36;102869.06;;;7.69;100.00
25430;BME280;13360;48.152;-1.788;2023-01-28T00:05:02;102866.31;;;7.69;100.00
25430;BME280;13360;48.152;-1.788;2023-01-28T00:07:28;102872.44;;;7.71;100.00
25430;BME280;13360;48.152;-1.788;2023-01-28T00:09:54;102870.53;;;7.71;100.00
25430;BME280;13360;48.152;-1.788;2023-01-28T00:12:19;102870.31;;;7.73;100.00
25430;BME280;13360;48.152;-1.788;2023-01-28T00:14:44;102867.34;;;7.74;100.00
25430;BME280;13360;48.152;-1.788;2023-01-28T00:17:13;102868.41;;;7.73;100.00
25430;BME280;13360;48.152;-1.788;2023-01-28T00:19:39;102870.09;;;7.74;100.00
25430;BME280;13360;48.152;-1.788;2023-01-28T00:22:04;102873.28;;;7.71;100.00
25430;BME280;13360;48.152;-1.788;2023-01-28T00:24:30;102869.06;;;7.69;100.00
25430;BME280;13360;48.152;-1.788;2023-01-28T00:26:55;102876.69;;;7.67;100.00
25430;BME280;13360;48.152;-1.788;2023-01-28T00:29:21;102885.78;;;7.67;100.00
25430;BME280;13360;48.152;-1.788;2023-01-28T00:31:46;102884.09;;;7.66;100.00
25430;BME280;13360;48.152;-1.788;2023-01-28T00:34:11;102885.78;;;7.67;100.00
25430;BME280;13360;48.152;-1.788;2023-01-28T00:36:37;102885.34;;;7.70;100.00
25430;BME280;13360;48.152;-1.788;2023-01-28T00:39:04;102884.28;;;7.71;100.00
25430;BME280;13360;48.152;-1.788;2023-01-28T00:41:29;102884.06;;;7.73;100.00
25430;BME280;13360;48.152;-1.788;2023-01-28T00:43:55;102891.47;;;7.72;100.00
25430;BME280;13360;48.152;-1.788;2023-01-28T00:46:21;102887.03;;;7.71;100.00
25430;BME280;13360;48.152;-1.788;2023-01-28T00:48:47;102894.84;;;7.74;100.00
25430;BME280;13360;48.152;-1.788;2023-01-28T00:51:14;102887.66;;;7.73;100.00
25430;BME280;13360;48.152;-1.788;2023-01-28T00:53:41;102894.47;;;7.71;100.00
25430;BME280;13360;48.152;-1.788;2023-01-28T00:56:10;102901.00;;;7.70;100.00
25430;BME280;13360;48.152;-1.788;2023-01-28T00:58:36;102898.66;;;7.73;100.00
25430;BME280;13360;48.152;-1.788;2023-01-28T01:01:23;102890.19;;;7.75;100.00
25430;BME280;13360;48.152;-1.788;2023-01-28T01:03:49;102887.19;;;7.76;100.00
25430;BME280;13360;48.152;-1.788;2023-01-28T01:06:32;102901.19;;;7.75;100.00
25430;BME280;13360;48.152;-1.788;2023-01-28T01:08:59;102902.03;;;7.75;100.00
25430;BME280;13360;48.152;-1.788;2023-01-28T01:11:25;102903.09;;;7.74;100.00
25430;BME280;13360;48.152;-1.788;2023-01-28T01:13:54;102905.84;;;7.74;100.00
25430;BME280;13360;48.152;-1.788;2023-01-28T01:16:22;102898.22;;;7.76;100.00
25430;BME280;13360;48.152;-1.788;2023-01-28T01:18:50;102909.44;;;7.75;100.00
25430;BME280;13360;48.152;-1.788;2023-01-28T01:21:18;102921.06;;;7.77;100.00
25430;BME280;13360;48.152;-1.788;2023-01-28T01:23:44;102923.81;;;7.77;100.00
25430;BME280;13360;48.152;-1.788;2023-01-28T01:26:10;102921.91;;;7.77;100.00
25430;BME280;13360;48.152;-1.788;2023-01-28T01:28:36;102924.88;;;7.76;100.00
25430;BME280;13360;48.152;-1.788;2023-01-28T01:31:10;102929.94;;;7.79;100.00
25430;BME280;13360;48.152;-1.788;2023-01-28T01:33:36;102933.28;;;7.81;100.00
25430;BME280;13360;48.152;-1.788;2023-01-28T01:36:04;102929.47;;;7.82;100.00
25430;BME280;13360;48.152;-1.788;2023-01-28T01:38:30;102927.56;;;7.82;100.00
25430;BME280;13360;48.152;-1.788;2023-01-28T01:40:59;102929.47;;;7.82;100.00
25430;BME280;13360;48.152;-1.788;2023-01-28T01:46:19;102921.00;;;7.83;100.00
25430;BME280;13360;48.152;-1.788;2023-01-28T01:48:46;102926.50;;;7.83;100.00
25430;BME280;13360;48.152;-1.788;2023-01-28T01:51:16;102930.31;;;7.82;100.00
25430;BME280;13360;48.152;-1.788;2023-01-28T01:53:45;102934.13;;;7.81;100.00
25430;BME280;13360;48.152;-1.788;2023-01-28T01:56:16;102947.66;;;7.83;100.00
25430;BME280;13360;48.152;-1.788;2023-01-28T01:58:44;102946.59;;;7.84;100.00
25430;BME280;13360;48.152;-1.788;2023-01-28T02:01:12;102939.63;;;7.81;100.00
25430;BME280;13360;48.152;-1.788;2023-01-28T02:03:46;102947.91;;;7.81;100.00
25430;BME280;13360;48.152;-1.788;2023-01-28T02:06:15;102948.50;;;7.83;100.00
25430;BME280;13360;48.152;-1.788;2023-01-28T02:08:42;102944.59;;;7.73;100.00
25430;BME280;13360;48.152;-1.788;2023-01-28T02:11:09;102954.69;;;7.79;100.00
25430;BME280;13360;48.152;-1.788;2023-01-28T02:13:41;102960.81;;;7.81;100.00
25430;BME280;13360;48.152;-1.788;2023-01-28T02:16:07;102956.53;;;7.85;100.00
25430;BME280;13360;48.152;-1.788;2023-01-28T02:18:34;102961.81;;;7.86;100.00
25430;BME280;13360;48.152;-1.788;2023-01-28T02:29:33;102952.31;;;7.82;100.00
25430;BME280;13360;48.152;-1.788;2023-01-28T02:34:37;102963.78;;;7.79;100.00
25430;BME280;13360;48.152;-1.788;2023-01-28T02:37:24;102966.53;;;7.79;100.00
25430;BME280;13360;48.152;-1.788;2023-01-28T02:39:56;102969.28;;;7.79;100.00
25430;BME280;13360;48.152;-1.788;2023-01-28T02:42:27;102970.13;;;7.80;100.00
25430;BME280;13360;48.152;-1.788;2023-01-28T02:44:53;102981.34;;;7.78;100.00
25430;BME280;13360;48.152;-1.788;2023-01-28T02:47:19;102972.31;;;7.71;100.00
25430;BME280;13360;48.152;-1.788;2023-01-28T02:50:13;102967.66;;;7.72;100.00
25430;BME280;13360;48.152;-1.788;2023-01-28T02:53:18;102968.31;;;7.67;100.00
25430;BME280;13360;48.152;-1.788;2023-01-28T02:56:19;102966.00;;;7.64;100.00
25430;BME280;13360;48.152;-1.788;2023-01-28T03:01:35;102979.38;;;7.60;100.00
25430;BME280;13360;48.152;-1.788;2023-01-28T03:04:07;102978.25;;;7.68;100.00
25430;BME280;13360;48.152;-1.788;2023-01-28T03:06:39;102957.59;;;7.59;100.00
25430;BME280;13360;48.152;-1.788;2023-01-28T03:09:07;102928.03;;;7.48;100.00
25430;BME280;13360;48.152;-1.788;2023-01-28T03:12:06;102929.41;;;7.39;100.00
25430;BME280;13360;48.152;-1.788;2023-01-28T03:15:06;102916.09;;;7.36;100.00
25430;BME280;13360;48.152;-1.788;2023-01-28T03:18:00;102877.06;;;7.20;100.00
25430;BME280;13360;48.152;-1.788;2023-01-28T03:20:47;102893.13;;;7.23;100.00
25430;BME280;13360;48.152;-1.788;2023-01-28T03:27:09;102877.53;;;7.17;100.00
25430;BME280;13360;48.152;-1.788;2023-01-28T03:29:54;102898.38;;;7.25;100.00
25430;BME280;13360;48.152;-1.788;2023-01-28T03:32:40;102901.44;;;7.42;100.00
25430;BME280;13360;48.152;-1.788;2023-01-28T03:35:28;102907.72;;;7.49;100.00
25430;BME280;13360;48.152;-1.788;2023-01-28T03:38:13;102901.59;;;7.53;100.00
25430;BME280;13360;48.152;-1.788;2023-01-28T03:40:59;102877.16;;;7.39;100.00
25430;BME280;13360;48.152;-1.788;2023-01-28T03:43:25;102882.81;;;7.44;100.00
25430;BME280;13360;48.152;-1.788;2023-01-28T03:45:50;102867.53;;;7.23;100.00
25430;BME280;13360;48.152;-1.788;2023-01-28T03:48:17;102878.28;;;6.99;100.00
25430;BME280;13360;48.152;-1.788;2023-01-28T03:50:43;102906.31;;;7.15;100.00
25430;BME280;13360;48.152;-1.788;2023-01-28T03:53:08;102891.94;;;7.13;100.00
25430;BME280;13360;48.152;-1.788;2023-01-28T03:55:37;102881.72;;;7.20;100.00
25430;BME280;13360;48.152;-1.788;2023-01-28T03:58:03;102865.69;;;7.17;100.00
25430;BME280;13360;48.152;-1.788;2023-01-28T04:00:30;102864.47;;;7.13;100.00
25430;BME280;13360;48.152;-1.788;2023-01-28T04:02:57;102865.19;;;6.95;100.00
25430;BME280;13360;48.152;-1.788;2023-01-28T04:05:22;102881.56;;;7.15;100.00
25430;BME280;13360;48.152;-1.788;2023-01-28T04:07:48;102860.59;;;6.89;100.00
25430;BME280;13360;48.152;-1.788;2023-01-28T04:10:15;102855.63;;;7.04;100.00
25430;BME280;13360;48.152;-1.788;2023-01-28T04:12:41;102851.38;;;7.08;100.00
25430;BME280;13360;48.152;-1.788;2023-01-28T04:15:08;102850.94;;;7.11;100.00
25430;BME280;13360;48.152;-1.788;2023-01-28T04:17:48;102850.72;;;7.13;100.00
25430;BME280;13360;48.152;-1.788;2023-01-28T04:20:14;102848.97;;;7.18;100.00
25430;BME280;13360;48.152;-1.788;2023-01-28T04:22:40;102863.78;;;7.17;100.00
25430;BME280;13360;48.152;-1.788;2023-01-28T04:25:05;102855.84;;;7.02;100.00
25430;BME280;13360;48.152;-1.788;2023-01-28T04:27:31;102851.72;;;6.87;100.00
25430;BME280;13360;48.152;-1.788;2023-01-28T04:29:56;102856.97;;;6.95;100.00
25430;BME280;13360;48.152;-1.788;2023-01-28T04:32:21;102868.72;;;7.09;100.00
25430;BME280;13360;48.152;-1.788;2023-01-28T04:34:47;102851.16;;;7.10;100.00
25430;BME280;13360;48.152;-1.788;2023-01-28T04:37:12;102835.53;;;7.03;100.00
25430;BME280;13360;48.152;-1.788;2023-01-28T04:39:37;102851.38;;;7.08;100.00
25430;BME280;13360;48.152;-1.788;2023-01-28T04:42:03;102846.28;;;7.12;100.00
25430;BME280;13360;48.152;-1.788;2023-01-28T04:44:28;102838.88;;;7.12;100.00
25430;BME280;13360;48.152;-1.788;2023-01-28T04:46:54;102837.56;;;6.90;100.00
25430;BME280;13360;48.152;-1.788;2023-01-28T04:49:19;102841.16;;;6.90;100.00
25430;BME280;13360;48.152;-1.788;2023-01-28T04:51:44;102851.19;;;7.03;100.00
25430;BME280;13360;48.152;-1.788;2023-01-28T04:54:10;102844.28;;;6.94;100.00
25430;BME280;13360;48.152;-1.788;2023-01-28T04:56:35;102855.81;;;7.09;100.00
25430;BME280;13360;48.152;-1.788;2023-01-28T04:59:01;102848.81;;;7.13;100.00
25430;BME280;13360;48.152;-1.788;2023-01-28T05:01:27;102854.75;;;7.10;100.00
25430;BME280;13360;48.152;-1.788;2023-01-28T05:03:52;102854.25;;;7.20;100.00
25430;BME280;13360;48.152;-1.788;2023-01-28T05:06:17;102839.13;;;7.04;100.00
25430;BME280;13360;48.152;-1.788;2023-01-28T05:08:43;102845.44;;;7.11;100.00
25430;BME280;13360;48.152;-1.788;2023-01-28T05:11:10;102837.44;;;7.03;100.00
25430;BME280;13360;48.152;-1.788;2023-01-28T05:13:36;102858.97;;;7.06;100.00
25430;BME280;13360;48.152;-1.788;2023-01-28T05:16:01;102870.13;;;7.18;100.00
25430;BME280;13360;48.152;-1.788;2023-01-28T05:18:27;102870.06;;;7.24;100.00
25430;BME280;13360;48.152;-1.788;2023-01-28T05:20:52;102868.53;;;7.28;100.00
25430;BME280;13360;48.152;-1.788;2023-01-28T05:23:17;102878.69;;;7.28;100.00
25430;BME280;13360;48.152;-1.788;2023-01-28T05:25:43;102893.28;;;7.28;100.00
25430;BME280;13360;48.152;-1.788;2023-01-28T05:28:09;102896.69;;;7.30;100.00
25430;BME280;13360;48.152;-1.788;2023-01-28T05:30:36;102902.41;;;7.29;100.00
25430;BME280;13360;48.152;-1.788;2023-01-28T05:33:02;102892.91;;;7.25;100.00
25430;BME280;13360;48.152;-1.788;2023-01-28T05:35:27;102900.69;;;7.28;100.00
25430;BME280;13360;48.152;-1.788;2023-01-28T05:37:52;102906.19;;;7.28;100.00
25430;BME280;13360;48.152;-1.788;2023-01-28T05:40:18;102911.50;;;7.29;100.00
25430;BME280;13360;48.152;-1.788;2023-01-28T05:42:43;102923.97;;;7.25;100.00
25430;BME280;13360;48.152;-1.788;2023-01-28T05:45:09;102943.22;;;7.25;100.00
25430;BME280;13360;48.152;-1.788;2023-01-28T05:47:34;102947.47;;;7.21;100.00
25430;BME280;13360;48.152;-1.788;2023-01-28T05:49:59;102937.78;;;7.19;100.00
25430;BME280;13360;48.152;-1.788;2023-01-28T05:52:25;102918.59;;;7.12;100.00
25430;BME280;13360;48.152;-1.788;2023-01-28T05:54:50;102925.31;;;7.16;100.00
25430;BME280;13360;48.152;-1.788;2023-01-28T05:57:15;102917.34;;;7.08;100.00
25430;BME280;13360;48.152;-1.788;2023-01-28T05:59:41;102930.41;;;7.13;100.00
25430;BME280;13360;48.152;-1.788;2023-01-28T06:02:06;102938.66;;;7.13;100.00
25430;BME280;13360;48.152;-1.788;2023-01-28T06:04:31;102965.47;;;7.17;100.00
25430;BME280;13360;48.152;-1.788;2023-01-28T06:06:56;102967.56;;;7.22;100.00
25430;BME280;13360;48.152;-1.788;2023-01-28T06:09:22;102974.53;;;7.24;100.00
25430;BME280;13360;48.152;-1.788;2023-01-28T06:11:47;102971.16;;;7.22;100.00
25430;BME280;13360;48.152;-1.788;2023-01-28T06:14:14;102974.34;;;7.19;100.00
25430;BME280;13360;48.152;-1.788;2023-01-28T06:16:39;102974.78;;;7.16;100.00
25430;BME280;13360;48.152;-1.788;2023-01-28T06:19:05;102991.50;;;7.15;100.00
25430;BME280;13360;48.152;-1.788;2023-01-28T06:21:30;102986.84;;;7.15;100.00
25430;BME280;13360;48.152;-1.788;2023-01-28T06:23:55;102995.09;;;7.15;100.00
25430;BME280;13360;48.152;-1.788;2023-01-28T06:26:21;103005.69;;;7.12;100.00
25430;BME280;13360;48.152;-1.788;2023-01-28T06:28:46;102999.78;;;7.08;100.00
25430;BME280;13360;48.152;-1.788;2023-01-28T06:31:12;102993.84;;;7.11;100.00
25430;BME280;13360;48.152;-1.788;2023-01-28T06:33:37;102974.44;;;6.99;100.00
25430;BME280;13360;48.152;-1.788;2023-01-28T06:36:03;102974.84;;;7.03;100.00
25430;BME280;13360;48.152;-1.788;2023-01-28T06:38:30;102982.25;;;7.09;100.00
25430;BME280;13360;48.152;-1.788;2023-01-28T06:40:56;102992.38;;;7.09;100.00
25430;BME280;13360;48.152;-1.788;2023-01-28T06:43:22;102995.97;;;7.09;100.00
25430;BME280;13360;48.152;-1.788;2023-01-28T06:45:55;103003.16;;;7.10;100.00
25430;BME280;13360;48.152;-1.788;2023-01-28T06:48:21;103006.97;;;7.09;100.00
25430;BME280;13360;48.152;-1.788;2023-01-28T06:50:47;103014.78;;;7.12;100.00
25430;BME280;13360;48.152;-1.788;2023-01-28T06:53:13;103011.81;;;7.07;100.00
25430;BME280;13360;48.152;-1.788;2023-01-28T06:55:39;103028.53;;;7.12;100.00
25430;BME280;13360;48.152;-1.788;2023-01-28T06:58:04;103028.31;;;7.14;100.00
25430;BME280;13360;48.152;-1.788;2023-01-28T07:00:29;103028.31;;;7.14;100.00
25430;BME280;13360;48.152;-1.788;2023-01-28T07:02:55;103029.59;;;7.11;100.00
25430;BME280;13360;48.152;-1.788;2023-01-28T07:05:21;103038.06;;;7.10;100.00
25430;BME280;13360;48.152;-1.788;2023-01-28T07:07:46;103029.63;;;6.98;100.00
25430;BME280;13360;48.152;-1.788;2023-01-28T07:10:12;103045.66;;;7.01;100.00
25430;BME280;13360;48.152;-1.788;2023-01-28T07:12:37;103030.88;;;7.09;100.00
25430;BME280;13360;48.152;-1.788;2023-01-28T07:15:03;103032.34;;;7.11;100.00
25430;BME280;13360;48.152;-1.788;2023-01-28T07:17:28;103027.69;;;7.12;100.00
25430;BME280;13360;48.152;-1.788;2023-01-28T07:19:54;103025.56;;;7.14;100.00
25430;BME280;13360;48.152;-1.788;2023-01-28T07:22:19;103020.28;;;7.12;100.00
25430;BME280;13360;48.152;-1.788;2023-01-28T07:24:44;103019.66;;;7.10;100.00
25430;BME280;13360;48.152;-1.788;2023-01-28T07:27:09;103012.88;;;7.06;100.00
25430;BME280;13360;48.152;-1.788;2023-01-28T07:29:35;103021.78;;;7.08;100.00
25430;BME280;13360;48.152;-1.788;2023-01-28T07:32:00;103030.66;;;7.10;100.00
25430;BME280;13360;48.152;-1.788;2023-01-28T07:34:26;103023.91;;;6.99;100.00
25430;BME280;13360;48.152;-1.788;2023-01-28T07:36:51;103017.16;;;6.95;100.00
25430;BME280;13360;48.152;-1.788;2023-01-28T07:39:16;103030.28;;;6.93;100.00
25430;BME280;13360;48.152;-1.788;2023-01-28T07:41:42;103021.00;;;6.88;100.00
25430;BME280;13360;48.152;-1.788;2023-01-28T07:44:07;103020.13;;;6.94;100.00
25430;BME280;13360;48.152;-1.788;2023-01-28T07:46:32;103018.00;;;6.96;100.00
25430;BME280;13360;48.152;-1.788;2023-01-28T07:48:58;103021.38;;;6.98;100.00
25430;BME280;13360;48.152;-1.788;2023-01-28T07:51:24;103010.81;;;6.95;100.00
25430;BME280;13360;48.152;-1.788;2023-01-28T07:53:50;102999.84;;;6.95;100.00
25430;BME280;13360;48.152;-1.788;2023-01-28T07:56:15;103000.06;;;6.93;100.00
25430;BME280;13360;48.152;-1.788;2023-01-28T07:58:40;102999.03;;;6.88;100.00
25430;BME280;13360;48.152;-1.788;2023-01-28T08:01:06;102996.69;;;6.85;100.00
25430;BME280;13360;48.152;-1.788;2023-01-28T08:03:31;102992.47;;;6.82;100.00
25430;BME280;13360;48.152;-1.788;2023-01-28T08:05:56;103009.19;;;6.81;100.00
25430;BME280;13360;48.152;-1.788;2023-01-28T08:08:23;103016.34;;;6.82;100.00
25430;BME280;13360;48.152;-1.788;2023-01-28T08:10:49;103021.41;;;6.85;100.00
25430;BME280;13360;48.152;-1.788;2023-01-28T08:13:17;103023.94;;;6.86;100.00
25430;BME280;13360;48.152;-1.788;2023-01-28T08:15:42;103021.00;;;6.88;100.00
25430;BME280;13360;48.152;-1.788;2023-01-28T08:18:10;103038.97;;;6.90;100.00
25430;BME280;13360;48.152;-1.788;2023-01-28T08:20:37;103033.69;;;6.89;100.00
25430;BME280;13360;48.152;-1.788;2023-01-28T08:23:08;103033.69;;;6.89;100.00
25430;BME280;13360;48.152;-1.788;2023-01-28T08:25:35;103044.69;;;6.89;100.00
25430;BME280;13360;48.152;-1.788;2023-01-28T08:28:04;103039.19;;;6.89;100.00
25430;BME280;13360;48.152;-1.788;2023-01-28T08:30:30;103055.66;;;6.89;100.00
25430;BME280;13360;48.152;-1.788;2023-01-28T08:32:56;103056.50;;;6.89;100.00
25430;BME280;13360;48.152;-1.788;2023-01-28T08:35:26;103061.16;;;6.89;100.00
25430;BME280;13360;48.152;-1.788;2023-01-28T08:37:52;103061.16;;;6.89;100.00
25430;BME280;13360;48.152;-1.788;2023-01-28T08:40:18;103061.16;;;6.89;100.00
25430;BME280;13360;48.152;-1.788;2023-01-28T08:42:51;103072.78;;;6.91;100.00
25430;BME280;13360;48.152;-1.788;2023-01-28T08:45:17;103058.63;;;6.87;100.00
25430;BME280;13360;48.152;-1.788;2023-01-28T08:47:50;103067.06;;;6.86;100.00
25430;BME280;13360;48.152;-1.788;2023-01-28T08:50:16;103072.16;;;6.89;100.00
25430;BME280;13360;48.152;-1.788;2023-01-28T08:52:42;103068.34;;;6.90;100.00
25430;BME280;13360;48.152;-1.788;2023-01-28T08:55:09;103063.25;;;6.87;100.00
25430;BME280;13360;48.152;-1.788;2023-01-28T08:57:35;103069.63;;;6.87;100.00
25430;BME280;13360;48.152;-1.788;2023-01-28T09:00:00;103075.97;;;6.88;100.00
25430;BME280;13360;48.152;-1.788;2023-01-28T09:02:26;103080.63;;;6.87;100.00
25430;BME280;13360;48.152;-1.788;2023-01-28T09:04:51;103082.47;;;6.87;100.00
25430;BME280;13360;48.152;-1.788;2023-01-28T09:07:16;103092.00;;;6.91;100.00
25430;BME280;13360;48.152;-1.788;2023-01-28T09:09:42;103091.75;;;6.99;100.00
25430;BME280;13360;48.152;-1.788;2023-01-28T09:12:07;103098.91;;;7.13;100.00
25430;BME280;13360;48.152;-1.788;2023-01-28T09:14:35;103100.97;;;7.24;100.00
25430;BME280;13360;48.152;-1.788;2023-01-28T09:17:00;103119.31;;;7.44;100.00
25430;BME280;13360;48.152;-1.788;2023-01-28T09:19:25;103128.16;;;7.52;100.00
25430;BME280;13360;48.152;-1.788;2023-01-28T09:21:51;103125.38;;;7.59;100.00
25430;BME280;13360;48.152;-1.788;2023-01-28T09:24:16;103119.66;;;7.60;100.00
25430;BME280;13360;48.152;-1.788;2023-01-28T09:26:43;103119.22;;;7.63;100.00
25430;BME280;13360;48.152;-1.788;2023-01-28T09:29:09;103134.00;;;7.69;100.00
25430;BME280;13360;48.152;-1.788;2023-01-28T09:31:34;103128.03;;;7.79;100.00
25430;BME280;13360;48.152;-1.788;2023-01-28T09:33:59;103130.97;;;7.84;100.00
25430;BME280;13360;48.152;-1.788;2023-01-28T09:36:25;103138.53;;;7.95;100.00
25430;BME280;13360;48.152;-1.788;2023-01-28T09:38:50;103130.84;;;8.04;100.00
25430;BME280;13360;48.152;-1.788;2023-01-28T09:41:27;103136.94;;;8.12;100.00
25430;BME280;13360;48.152;-1.788;2023-01-28T09:46:35;103148.69;;;8.26;100.00
25430;BME280;13360;48.152;-1.788;2023-01-28T09:49:07;103145.03;;;8.32;100.00
25430;BME280;13360;48.152;-1.788;2023-01-28T09:51:47;103156.00;;;8.45;100.00
25430;BME280;13360;48.152;-1.788;2023-01-28T09:57:00;103160.94;;;8.62;100.00
25430;BME280;13360;48.152;-1.788;2023-01-28T09:59:32;103159.88;;;8.63;100.00
25430;BME280;13360;48.152;-1.788;2023-01-28T10:02:03;103159.94;;;8.56;100.00
25430;BME280;13360;48.152;-1.788;2023-01-28T10:04:53;103190.81;;;8.65;100.00
25430;BME280;13360;48.152;-1.788;2023-01-28T10:10:05;103195.19;;;8.72;100.00
25430;BME280;13360;48.152;-1.788;2023-01-28T10:12:47;103184.84;;;8.68;100.00
25430;BME280;13360;48.152;-1.788;2023-01-28T10:18:09;103146.56;;;8.60;100.00
25430;BME280;13360;48.152;-1.788;2023-01-28T10:20:56;103140.53;;;8.44;100.00
25430;BME280;13360;48.152;-1.788;2023-01-28T10:23:29;103165.03;;;8.52;100.00
25430;BME280;13360;48.152;-1.788;2023-01-28T10:26:04;103170.38;;;8.47;100.00
25430;BME280;13360;48.152;-1.788;2023-01-28T10:28:35;103168.78;;;8.33;100.00
25430;BME280;13360;48.152;-1.788;2023-01-28T10:31:01;103168.78;;;8.33;100.00
25430;BME280;13360;48.152;-1.788;2023-01-28T10:35:53;103194.66;;;8.25;100.00
25430;BME280;13360;48.152;-1.788;2023-01-28T10:38:21;103178.53;;;8.29;100.00
25430;BME280;13360;48.152;-1.788;2023-01-28T10:40:47;103185.22;;;8.08;100.00
25430;BME280;13360;48.152;-1.788;2023-01-28T10:43:19;103210.28;;;8.32;100.00
25430;BME280;13360;48.152;-1.788;2023-01-28T10:48:32;103220.69;;;8.36;100.00
25430;BME280;13360;48.152;-1.788;2023-01-28T10:51:00;103199.59;;;8.17;100.00
25430;BME280;13360;48.152;-1.788;2023-01-28T10:53:52;103198.75;;;8.10;100.00
25430;BME280;13360;48.152;-1.788;2023-01-28T10:56:24;103216.91;;;8.24;100.00
25430;BME280;13360;48.152;-1.788;2023-01-28T11:01:37;103214.94;;;8.38;100.00
25430;BME280;13360;48.152;-1.788;2023-01-28T11:04:03;103210.50;;;8.37;100.00
25430;BME280;13360;48.152;-1.788;2023-01-28T11:06:29;103217.31;;;8.27;100.00
25430;BME280;13360;48.152;-1.788;2023-01-28T11:08:55;103215.50;;;8.08;100.00
25430;BME280;13360;48.152;-1.788;2023-01-28T11:11:27;103213.34;;;8.17;100.00
25430;BME280;13360;48.152;-1.788;2023-01-28T11:13:53;103220.50;;;8.24;100.00
25430;BME280;13360;48.152;-1.788;2023-01-28T11:16:23;103214.34;;;8.36;100.00
25430;BME280;13360;48.152;-1.788;2023-01-28T11:18:54;103227.16;;;8.48;100.00
25430;BME280;13360;48.152;-1.788;2023-01-28T11:21:24;103227.44;;;8.40;100.00
25430;BME280;13360;48.152;-1.788;2023-01-28T11:23:53;103206.00;;;8.42;100.00
25430;BME280;13360;48.152;-1.788;2023-01-28T11:26:26;103215.34;;;8.41;100.00
25430;BME280;13360;48.152;-1.788;2023-01-28T11:28:52;103216.13;;;8.48;100.00
25430;BME280;13360;48.152;-1.788;2023-01-28T11:31:19;103222.19;;;8.64;100.00
25430;BME280;13360;48.152;-1.788;2023-01-28T11:33:55;103231.91;;;8.66;100.00
25430;BME280;13360;48.152;-1.788;2023-01-28T11:36:24;103215.66;;;8.58;100.00
25430;BME280;13360;48.152;-1.788;2023-01-28T11:38:57;103221.56;;;8.62;100.00
25430;BME280;13360;48.152;-1.788;2023-01-28T11:41:35;103213.19;;;8.75;100.00
25430;BME280;13360;48.152;-1.788;2023-01-28T11:44:15;103203.22;;;8.74;100.00
25430;BME280;13360;48.152;-1.788;2023-01-28T11:52:30;103199.63;;;8.73;100.00
25430;BME280;13360;48.152;-1.788;2023-01-28T12:01:09;103158.75;;;8.45;100.00
25430;BME280;13360;48.152;-1.788;2023-01-28T12:17:28;103115.44;;;8.77;100.00
25430;BME280;13360;48.152;-1.788;2023-01-28T12:20:27;103082.19;;;8.54;100.00
25430;BME280;13360;48.152;-1.788;2023-01-28T12:25:57;103079.63;;;8.52;100.00
25430;BME280;13360;48.152;-1.788;2023-01-28T12:31:25;103059.03;;;8.37;100.00
25430;BME280;13360;48.152;-1.788;2023-01-28T12:39:50;103064.16;;;8.26;100.00
25430;BME280;13360;48.152;-1.788;2023-01-28T12:45:32;103059.13;;;8.48;100.00
25430;BME280;13360;48.152;-1.788;2023-01-28T12:48:08;103088.84;;;8.65;100.00
25430;BME280;13360;48.152;-1.788;2023-01-28T12:50:54;103090.91;;;8.69;100.00
25430;BME280;13360;48.152;-1.788;2023-01-28T12:53:47;103084.34;;;8.70;100.00
25430;BME280;13360;48.152;-1.788;2023-01-28T12:56:15;103047.91;;;8.68;100.00
25430;BME280;13360;48.152;-1.788;2023-01-28T12:59:19;103026.09;;;8.67;100.00
25430;BME280;13360;48.152;-1.788;2023-01-28T13:09:57;102987.53;;;8.67;100.00
25430;BME280;13360;48.152;-1.788;2023-01-28T13:12:24;102994.84;;;8.73;100.00
25430;BME280;13360;48.152;-1.788;2023-01-28T13:14:50;102978.34;;;8.54;100.00
25430;BME280;13360;48.152;-1.788;2023-01-28T13:17:28;102976.19;;;8.38;100.00
25430;BME280;13360;48.152;-1.788;2023-01-28T13:19:54;102971.13;;;8.53;100.00
25430;BME280;13360;48.152;-1.788;2023-01-28T13:22:35;102973.97;;;8.65;100.00
25430;BME280;13360;48.152;-1.788;2023-01-28T13:25:23;102983.59;;;8.74;100.00
25430;BME280;13360;48.152;-1.788;2023-01-28T13:28:04;102968.38;;;8.72;100.00
25430;BME280;13360;48.152;-1.788;2023-01-28T13:30:45;102953.56;;;8.54;100.00
25430;BME280;13360;48.152;-1.788;2023-01-28T13:33:31;102988.28;;;8.74;100.00
25430;BME280;13360;48.152;-1.788;2023-01-28T13:36:02;102954.53;;;8.60;100.00
25430;BME280;13360;48.152;-1.788;2023-01-28T13:38:31;102944.22;;;8.55;100.00
25430;BME280;13360;48.152;-1.788;2023-01-28T13:40:59;102947.72;;;8.63;100.00
25430;BME280;13360;48.152;-1.788;2023-01-28T13:46:03;102936.09;;;8.42;100.00
25430;BME280;13360;48.152;-1.788;2023-01-28T13:51:11;102914.16;;;8.54;100.00
25430;BME280;13360;48.152;-1.788;2023-01-28T13:53:47;102936.09;;;8.61;100.00
25430;BME280;13360;48.152;-1.788;2023-01-28T13:56:27;102910.09;;;8.57;100.00
25430;BME280;13360;48.152;-1.788;2023-01-28T14:05:17;102917.75;;;8.54;100.00
25430;BME280;13360;48.152;-1.788;2023-01-28T14:18:55;102922.47;;;8.66;100.00
25430;BME280;13360;48.152;-1.788;2023-01-28T14:21:25;102925.59;;;8.69;100.00
25430;BME280;13360;48.152;-1.788;2023-01-28T14:23:54;102913.00;;;8.62;100.00
25430;BME280;13360;48.152;-1.788;2023-01-28T14:29:15;102921.25;;;8.62;100.00
25430;BME280;13360;48.152;-1.788;2023-01-28T14:31:42;102910.09;;;8.57;100.00
25430;BME280;13360;48.152;-1.788;2023-01-28T14:36:39;102940.91;;;8.65;100.00
25430;BME280;13360;48.152;-1.788;2023-01-28T14:39:14;102932.56;;;8.72;100.00
25430;BME280;13360;48.152;-1.788;2023-01-28T14:41:42;102935.47;;;8.77;100.00
25430;BME280;13360;48.152;-1.788;2023-01-28T14:44:15;102935.63;;;8.82;100.00
25430;BME280;13360;48.152;-1.788;2023-01-28T14:46:59;102950.94;;;8.96;100.00